Time;durP1;ratioP1;P1;durP2;ratioP2;P2;SDS_P1;SDS_P2;PMS_P1;PMS_P2;Temp;Humidity;BMP_temperature;BMP_pressure;BME280_temperature;BME280_humidity;BME280_pressure;Samples;Min_cycle;Max_cycle;Signal;HPM_P1;HPM_P2
2023/10/23 00:01:56;;;;;;;17.65;7.10;;;;;;;-144.73;100.00;54617.06;4842427;29;20030;-75
2023/10/23 00:04:24;;;;;;;16.15;6.78;;;;;;;-144.73;100.00;54654.00;4843607;29;20162;-75
2023/10/23 00:06:50;;;;;;;15.68;6.25;;;;;;;-144.73;100.00;54621.16;4849768;29;20108;-75
2023/10/23 00:09:15;;;;;;;16.48;7.55;;;;;;;-144.73;100.00;54600.63;4843586;29;20119;-76
2023/10/23 00:11:40;;;;;;;12.85;6.55;;;;;;;-144.73;100.00;54643.75;4843947;29;20026;-75
2023/10/23 00:14:06;;;;;;;17.13;7.63;;;;;;;-144.73;100.00;54617.06;4843576;29;20089;-75
2023/10/23 00:16:31;;;;;;;27.48;8.23;;;;;;;-144.73;100.00;54637.59;4843677;29;20048;-76
2023/10/23 00:18:56;;;;;;;13.73;7.68;;;;;;;-144.73;100.00;54608.84;4843645;29;20038;-75
2023/10/23 00:21:22;;;;;;;16.30;7.43;;;;;;;-144.73;100.00;54612.97;4843949;29;20026;-75
2023/10/23 00:23:47;;;;;;;18.50;9.15;;;;;;;-144.73;100.00;54658.13;4843418;29;20042;-75
2023/10/23 00:26:12;;;;;;;23.10;8.55;;;;;;;-144.73;100.00;54617.06;4842157;29;20042;-76
2023/10/23 00:28:38;;;;;;;12.32;7.25;;;;;;;-144.73;100.00;54674.53;4841495;29;20064;-75
2023/10/23 00:31:03;;;;;;;17.98;7.57;;;;;;;-144.73;100.00;54641.69;4843745;29;20037;-75
2023/10/23 00:33:28;;;;;;;12.00;7.07;;;;;;;-144.73;100.00;54600.63;4857576;29;20064;-75
2023/10/23 00:35:54;;;;;;;14.00;6.65;;;;;;;-144.73;100.00;54582.16;4837972;29;20089;-75
2023/10/23 00:38:20;;;;;;;15.45;7.82;;;;;;;-144.73;100.00;54629.38;4843595;29;20037;-75
2023/10/23 00:40:45;;;;;;;18.23;8.10;;;;;;;-144.73;100.00;54617.06;4843177;29;20161;-75
2023/10/23 00:43:11;;;;;;;12.23;6.97;;;;;;;-144.73;100.00;54621.16;4865427;29;20025;-75
2023/10/23 00:45:43;;;;;;;23.15;8.57;;;;;;;-144.73;100.00;54658.13;4856408;29;20044;-75
2023/10/23 00:48:08;;;;;;;18.77;8.68;;;;;;;-144.73;100.00;54651.97;4846231;29;20073;-75
2023/10/23 00:50:34;;;;;;;14.98;8.43;;;;;;;-144.73;100.00;54629.38;4847804;29;20033;-75
2023/10/23 00:53:00;;;;;;;19.25;8.10;;;;;;;-144.73;100.00;54645.78;4849301;29;20481;-75
2023/10/23 00:55:25;;;;;;;14.80;8.68;;;;;;;-144.73;100.00;54604.75;4842456;29;20049;-76
2023/10/23 00:57:51;;;;;;;17.25;8.30;;;;;;;-144.73;100.00;54633.47;4842821;29;20044;-75
2023/10/23 01:00:17;;;;;;;10.13;6.30;;;;;;;-144.73;100.00;54612.97;4857856;29;20048;-75
2023/10/23 01:02:42;;;;;;;18.52;8.25;;;;;;;-144.73;100.00;54633.47;4859090;29;20040;-75
2023/10/23 01:05:07;;;;;;;16.85;8.38;;;;;;;-144.73;100.00;54621.16;4843806;29;20083;-76
2023/10/23 01:07:33;;;;;;;11.63;7.60;;;;;;;-144.73;100.00;54686.84;4842545;29;20039;-76
2023/10/23 01:09:58;;;;;;;12.38;7.10;;;;;;;-144.73;100.00;54633.47;4858628;29;20041;-75
2023/10/23 01:12:23;;;;;;;21.80;8.93;;;;;;;-144.73;100.00;54637.59;4843402;29;20041;-76
2023/10/23 01:14:49;;;;;;;11.85;8.07;;;;;;;-144.73;100.00;54649.91;4842038;29;20038;-75
2023/10/23 01:17:14;;;;;;;16.95;7.65;;;;;;;-144.73;100.00;54627.31;4842822;29;20054;-75
2023/10/23 01:19:39;;;;;;;14.10;8.85;;;;;;;-144.73;100.00;54596.53;4842226;29;20033;-75
2023/10/23 01:22:05;;;;;;;17.10;11.20;;;;;;;-144.73;100.00;54621.16;4843084;29;20041;-75
2023/10/23 01:24:32;;;;;;;16.88;8.93;;;;;;;-144.73;100.00;54633.47;4841539;29;20045;-74
2023/10/23 01:26:57;;;;;;;18.70;8.93;;;;;;;-144.73;100.00;54631.44;4842332;29;20021;-74
2023/10/23 01:29:23;;;;;;;23.40;10.95;;;;;;;-144.73;100.00;54625.28;4841737;29;20183;-75
2023/10/23 01:31:48;;;;;;;15.30;7.70;;;;;;;-144.73;100.00;54637.59;4858799;29;20046;-75
2023/10/23 01:34:13;;;;;;;17.90;9.52;;;;;;;-144.73;100.00;54641.69;4841802;29;20040;-74
2023/10/23 01:36:39;;;;;;;22.83;10.50;;;;;;;-144.73;100.00;54608.84;4841991;29;20033;-74
2023/10/23 01:39:04;;;;;;;16.95;11.15;;;;;;;-144.73;100.00;54606.78;4842442;29;20085;-75
2023/10/23 01:41:29;;;;;;;24.52;10.98;;;;;;;-144.73;100.00;54641.69;4841477;29;20029;-75
2023/10/23 01:43:55;;;;;;;18.83;10.80;;;;;;;-144.73;100.00;54621.16;4841489;29;20146;-75
2023/10/23 01:46:21;;;;;;;24.08;10.38;;;;;;;-144.73;100.00;54633.47;4842186;29;20025;-75
2023/10/23 01:48:46;;;;;;;19.02;11.70;;;;;;;-144.73;100.00;54662.22;4843557;29;20061;-75
2023/10/23 01:51:11;;;;;;;22.60;11.45;;;;;;;-144.73;100.00;54643.75;4844118;29;20077;-75
2023/10/23 01:53:37;;;;;;;16.05;10.55;;;;;;;-144.73;100.00;54649.91;4856696;29;20112;-74
2023/10/23 01:56:07;;;;;;;25.52;10.40;;;;;;;-144.73;100.00;54637.59;4842546;29;20128;-76
2023/10/23 01:58:32;;;;;;;19.50;11.52;;;;;;;-144.73;100.00;54658.13;4841243;29;20041;-75
2023/10/23 02:00:58;;;;;;;28.75;13.07;;;;;;;-144.73;100.00;54600.63;4841561;29;20163;-74
2023/10/23 02:03:23;;;;;;;25.10;13.00;;;;;;;-144.73;100.00;54658.13;4863880;29;20041;-75
2023/10/23 02:05:48;;;;;;;22.95;10.85;;;;;;;-144.73;100.00;54629.38;4866253;29;20496;-74
2023/10/23 02:08:16;;;;;;;16.42;9.57;;;;;;;-144.73;100.00;54625.28;4869026;29;20116;-74
2023/10/23 02:10:42;;;;;;;27.58;10.15;;;;;;;-144.73;100.00;54608.84;4842496;29;20033;-74
2023/10/23 02:13:07;;;;;;;26.15;12.77;;;;;;;-144.73;100.00;54629.38;4842250;29;20041;-74
2023/10/23 02:15:33;;;;;;;26.30;11.00;;;;;;;-144.73;100.00;54633.47;4865820;29;20080;-75
2023/10/23 02:17:58;;;;;;;25.50;13.45;;;;;;;-144.73;100.00;54645.78;4849924;29;20048;-75
2023/10/23 02:20:27;;;;;;;20.92;12.07;;;;;;;-144.73;100.00;54608.84;4853084;29;20037;-74
2023/10/23 02:22:52;;;;;;;30.10;12.68;;;;;;;-144.73;100.00;54654.00;4848876;29;20045;-75
2023/10/23 02:25:18;;;;;;;20.52;12.95;;;;;;;-144.73;100.00;54633.47;4859915;29;20097;-75
2023/10/23 02:27:46;;;;;;;29.48;14.25;;;;;;;-144.73;100.00;54635.53;4850474;29;20512;-75
2023/10/23 02:30:12;;;;;;;28.30;13.50;;;;;;;-144.73;100.00;54658.13;4850629;29;20033;-75
2023/10/23 02:32:37;;;;;;;28.00;12.77;;;;;;;-144.73;100.00;54615.00;4859124;29;20036;-74
2023/10/23 02:35:03;;;;;;;25.20;13.02;;;;;;;-144.73;100.00;54617.06;4840984;29;20500;-75
2023/10/23 02:37:28;;;;;;;29.52;14.20;;;;;;;-144.73;100.00;54641.69;4841171;29;20025;-76
2023/10/23 02:39:53;;;;;;;20.83;13.45;;;;;;;-144.73;100.00;54641.69;4840808;29;20089;-74
2023/10/23 02:42:19;;;;;;;23.33;12.13;;;;;;;-144.73;100.00;54654.00;4848973;29;20038;-75
2023/10/23 02:44:44;;;;;;;18.75;11.93;;;;;;;-144.73;100.00;54625.28;4840339;29;20048;-75
2023/10/23 02:47:12;;;;;;;27.98;12.07;;;;;;;-144.73;100.00;54658.13;4856787;29;20065;-74
2023/10/23 02:49:38;;;;;;;19.33;10.07;;;;;;;-144.73;100.00;54629.38;4855263;29;20136;-75
2023/10/23 02:52:04;;;;;;;28.30;13.25;;;;;;;-144.73;100.00;54639.63;4841180;29;20113;-75
2023/10/23 02:54:29;;;;;;;31.98;14.70;;;;;;;-144.73;100.00;54625.28;4839227;29;20038;-75
2023/10/23 02:56:55;;;;;;;20.02;10.32;;;;;;;-144.73;100.00;54654.00;4840968;29;20111;-75
2023/10/23 02:59:21;;;;;;;23.92;11.80;;;;;;;-144.73;100.00;54660.16;4840913;29;20037;-74
2023/10/23 03:01:46;;;;;;;30.40;14.10;;;;;;;-144.73;100.00;54658.13;4841527;29;20495;-75
2023/10/23 03:04:12;;;;;;;33.17;16.23;;;;;;;-144.73;100.00;54649.91;4869382;29;20045;-75
2023/10/23 03:06:37;;;;;;;26.02;12.70;;;;;;;-144.73;100.00;54604.75;4858392;29;20087;-76
2023/10/23 03:09:03;;;;;;;24.00;11.88;;;;;;;-144.73;100.00;54621.16;4844876;29;20045;-74
2023/10/23 03:11:28;;;;;;;22.98;12.75;;;;;;;-144.73;100.00;54615.00;4846840;29;20081;-74
2023/10/23 03:13:54;;;;;;;26.50;12.18;;;;;;;-144.73;100.00;54600.63;4849847;29;20056;-74
2023/10/23 03:16:19;;;;;;;32.83;13.35;;;;;;;-144.73;100.00;54641.69;4851977;29;20021;-75
2023/10/23 03:18:45;;;;;;;21.52;13.73;;;;;;;-144.73;100.00;54641.69;4851009;29;20133;-75
2023/10/23 03:21:10;;;;;;;26.42;15.80;;;;;;;-144.73;100.00;54612.97;4858234;29;20108;-75
2023/10/23 03:23:36;;;;;;;26.80;14.63;;;;;;;-144.73;100.00;54604.75;4840639;29;20042;-74
2023/10/23 03:26:02;;;;;;;30.70;14.20;;;;;;;-144.73;100.00;54625.28;4839315;29;20019;-75
2023/10/23 03:28:27;;;;;;;21.63;12.10;;;;;;;-144.73;100.00;54612.97;4844032;29;20085;-74
2023/10/23 03:30:53;;;;;;;25.65;14.35;;;;;;;-144.73;100.00;54625.28;4844335;29;20017;-75
2023/10/23 03:33:18;;;;;;;25.92;11.77;;;;;;;-144.73;100.00;54641.69;4859737;29;20035;-74
2023/10/23 03:35:44;;;;;;;27.88;14.70;;;;;;;-144.73;100.00;54617.06;4844083;29;20041;-75
2023/10/23 03:38:10;;;;;;;31.52;18.13;;;;;;;-144.73;100.00;54600.63;4844292;29;20052;-75
2023/10/23 03:40:35;;;;;;;35.47;17.60;;;;;;;-144.73;100.00;54637.59;4859635;29;20441;-74
2023/10/23 03:43:01;;;;;;;25.55;13.30;;;;;;;-144.73;100.00;54674.53;4866363;29;20137;-74
2023/10/23 03:45:26;;;;;;;35.13;17.02;;;;;;;-144.73;100.00;54658.13;4853851;29;20061;-75
2023/10/23 03:47:51;;;;;;;37.70;16.05;;;;;;;-144.73;100.00;54600.63;4854252;29;20108;-74
2023/10/23 03:50:17;;;;;;;24.15;13.57;;;;;;;-144.73;100.00;54617.06;4853165;29;20498;-74
2023/10/23 03:52:42;;;;;;;23.50;11.48;;;;;;;-144.73;100.00;54670.44;4848078;29;20025;-74
2023/10/23 03:55:08;;;;;;;22.35;11.82;;;;;;;-144.73;100.00;54612.97;4843249;29;20037;-74
2023/10/23 03:57:33;;;;;;;30.05;14.63;;;;;;;-144.73;100.00;54641.69;4843749;29;20041;-74
2023/10/23 03:59:59;;;;;;;33.65;16.77;;;;;;;-144.73;100.00;54631.44;4860292;29;20030;-74
2023/10/23 04:02:24;;;;;;;32.58;15.45;;;;;;;-144.73;100.00;54612.97;4866627;29;20052;-74
2023/10/23 04:04:49;;;;;;;24.88;14.05;;;;;;;-144.73;100.00;54645.78;4847195;29;20090;-74
2023/10/23 04:07:15;;;;;;;22.95;12.07;;;;;;;-144.73;100.00;54608.84;4849267;29;20040;-74
2023/10/23 04:09:40;;;;;;;27.92;13.85;;;;;;;-144.73;100.00;54625.28;4862003;29;20042;-75
2023/10/23 04:12:06;;;;;;;25.48;13.30;;;;;;;-144.73;100.00;54625.28;4851333;29;20032;-74
2023/10/23 04:14:31;;;;;;;45.20;20.27;;;;;;;-144.73;100.00;54625.28;4859894;29;20061;-76
2023/10/23 04:16:56;;;;;;;41.55;18.05;;;;;;;-144.73;100.00;54641.69;4844029;29;20365;-74
2023/10/23 04:19:22;;;;;;;36.30;17.58;;;;;;;-144.73;100.00;54633.47;4843146;29;20038;-75
2023/10/23 04:21:47;;;;;;;32.92;17.25;;;;;;;-144.73;100.00;54641.69;4843093;29;20076;-74
2023/10/23 04:24:13;;;;;;;41.97;18.50;;;;;;;-144.73;100.00;54619.13;4843275;29;20042;-75
2023/10/23 04:26:38;;;;;;;18.60;11.55;;;;;;;-144.73;100.00;54629.38;4842970;29;20062;-74
2023/10/23 04:29:04;;;;;;;32.20;16.88;;;;;;;-144.73;100.00;54670.44;4859481;29;20060;-75
2023/10/23 04:31:30;;;;;;;29.52;14.18;;;;;;;-144.73;100.00;54625.28;4843740;29;20025;-75
2023/10/23 04:33:55;;;;;;;21.13;13.10;;;;;;;-144.73;100.00;54631.44;4847625;29;20037;-74
2023/10/23 04:36:20;;;;;;;34.58;15.52;;;;;;;-144.73;100.00;54643.75;4870421;29;20056;-75
2023/10/23 04:38:46;;;;;;;38.30;17.95;;;;;;;-144.73;100.00;54637.59;4851029;29;20046;-74
2023/10/23 04:41:12;;;;;;;32.42;16.58;;;;;;;-144.73;100.00;54612.97;4855439;29;20041;-74
2023/10/23 04:43:37;;;;;;;42.47;19.40;;;;;;;-144.73;100.00;54580.13;4842501;29;20033;-74
2023/10/23 04:46:03;;;;;;;42.67;19.10;;;;;;;-144.73;100.00;54629.38;4859705;29;20081;-75
2023/10/23 04:48:28;;;;;;;49.88;22.75;;;;;;;-144.73;100.00;54674.53;4859381;29;20397;-74
2023/10/23 04:50:59;;;;;;;141.10;37.58;;;;;;;-144.73;100.00;54654.00;4842985;29;20406;-74
2023/10/23 04:53:25;;;;;;;33.50;16.00;;;;;;;-144.73;100.00;54662.22;4859649;29;20081;-75
2023/10/23 04:55:50;;;;;;;46.58;23.60;;;;;;;-144.73;100.00;54637.59;4858954;29;20061;-75
2023/10/23 04:58:15;;;;;;;53.05;22.60;;;;;;;-144.73;100.00;54629.38;4858096;29;20116;-74
2023/10/23 05:00:41;;;;;;;61.47;24.23;;;;;;;-144.73;100.00;54670.44;4842629;29;20042;-74
2023/10/23 05:03:07;;;;;;;76.68;30.20;;;;;;;-144.73;100.00;54633.47;4858009;29;20029;-74
2023/10/23 05:05:33;;;;;;;49.15;24.02;;;;;;;-144.73;100.00;54670.44;4858960;29;20112;-74
2023/10/23 05:07:58;;;;;;;61.25;26.90;;;;;;;-144.73;100.00;54592.44;4837793;29;20117;-74
2023/10/23 05:10:24;;;;;;;47.10;21.73;;;;;;;-144.73;100.00;54649.91;4842585;29;20029;-75
2023/10/23 05:12:49;;;;;;;47.53;19.15;;;;;;;-144.73;100.00;54645.78;4842423;29;20021;-74
2023/10/23 05:15:16;;;;;;;47.92;21.40;;;;;;;-144.73;100.00;54670.44;4842404;29;20501;-75
2023/10/23 05:17:42;;;;;;;48.03;22.05;;;;;;;-144.73;100.00;54617.06;4857820;29;20097;-75
2023/10/23 05:20:08;;;;;;;60.50;24.50;;;;;;;-144.73;100.00;54625.28;4841832;29;20030;-74
2023/10/23 05:22:33;;;;;;;77.07;26.80;;;;;;;-144.73;100.00;54637.59;4842223;29;20097;-75
2023/10/23 05:24:59;;;;;;;69.28;26.00;;;;;;;-144.73;100.00;54592.44;4859146;29;20041;-75
2023/10/23 05:27:25;;;;;;;61.88;25.40;;;;;;;-144.73;100.00;54654.00;4841167;29;20025;-75
2023/10/23 05:29:50;;;;;;;57.28;25.83;;;;;;;-144.73;100.00;54670.44;4841671;29;20036;-75
2023/10/23 05:32:15;;;;;;;51.58;24.50;;;;;;;-144.73;100.00;54629.38;4848624;29;20107;-75
2023/10/23 05:34:44;;;;;;;50.25;23.60;;;;;;;-144.73;100.00;54629.38;4865248;29;20044;-75
2023/10/23 05:37:09;;;;;;;51.28;23.83;;;;;;;-144.73;100.00;54633.47;4850463;29;20041;-76
2023/10/23 05:39:35;;;;;;;77.68;27.88;;;;;;;-144.73;100.00;54619.13;4843378;29;20045;-74
2023/10/23 05:42:00;;;;;;;75.28;25.63;;;;;;;-144.73;100.00;54625.28;4849712;29;20085;-73
2023/10/23 05:44:25;;;;;;;61.45;24.88;;;;;;;-144.73;100.00;54645.78;4849040;29;20086;-73
2023/10/23 05:46:50;;;;;;;62.38;24.52;;;;;;;-144.73;100.00;54641.69;4849556;29;20029;-73
2023/10/23 05:49:16;;;;;;;73.53;27.58;;;;;;;-144.73;100.00;54670.44;4868348;29;20036;-73
2023/10/23 05:51:41;;;;;;;68.53;27.63;;;;;;;-144.73;100.00;54635.53;4843179;29;20052;-74
2023/10/23 05:54:08;;;;;;;44.20;20.65;;;;;;;-144.73;100.00;54682.75;4841529;29;20580;-75
2023/10/23 05:56:33;;;;;;;43.80;22.85;;;;;;;-144.73;100.00;54639.63;4857920;29;20101;-75
2023/10/23 05:58:59;;;;;;;58.63;26.25;;;;;;;-144.73;100.00;54699.16;4841526;29;20037;-74
2023/10/23 06:01:24;;;;;;;69.57;26.58;;;;;;;-144.73;100.00;54645.78;4841684;29;20108;-74
2023/10/23 06:03:49;;;;;;;68.20;26.48;;;;;;;-144.73;100.00;54645.78;4849970;29;20029;-74
2023/10/23 06:06:15;;;;;;;58.58;24.63;;;;;;;-144.73;100.00;54670.44;4843240;29;20465;-76
2023/10/23 06:08:40;;;;;;;73.78;28.88;;;;;;;-144.73;100.00;54637.59;4861637;29;20036;-73
2023/10/23 06:11:10;;;;;;;75.60;29.27;;;;;;;-144.73;100.00;54623.22;4844249;29;20024;-73
2023/10/23 06:13:36;;;;;;;59.95;24.63;;;;;;;-144.73;100.00;54600.63;4840952;29;20032;-74
2023/10/23 06:16:04;;;;;;;83.55;31.38;;;;;;;-144.73;100.00;54658.13;4842210;29;20030;-74
2023/10/23 06:18:33;;;;;;;81.60;27.85;;;;;;;-144.73;100.00;54649.91;4856234;29;20022;-74
2023/10/23 06:21:04;;;;;;;78.55;29.65;;;;;;;-144.73;100.00;54654.00;4841741;29;20073;-74
2023/10/23 06:23:36;;;;;;;77.28;28.30;;;;;;;-144.73;100.00;54641.69;4872155;29;20033;-74
2023/10/23 06:26:02;;;;;;;74.10;29.13;;;;;;;-144.73;100.00;54629.38;4869405;29;20025;-74
2023/10/23 06:28:27;;;;;;;117.03;35.15;;;;;;;-144.73;100.00;54641.69;4856103;29;20064;-75
2023/10/23 06:30:53;;;;;;;147.20;40.83;;;;;;;-144.73;100.00;54686.84;4855397;29;20084;-75
2023/10/23 06:33:18;;;;;;;105.32;33.80;;;;;;;-144.73;100.00;54623.22;4844513;29;20473;-76
2023/10/23 06:35:44;;;;;;;82.10;28.45;;;;;;;-144.73;100.00;54580.13;4841269;29;20094;-75
2023/10/23 06:38:12;;;;;;;75.35;28.13;;;;;;;-144.73;100.00;54641.69;4858456;29;20049;-75
2023/10/23 06:40:37;;;;;;;77.20;29.33;;;;;;;-144.73;100.00;54670.44;4841289;29;20048;-75
2023/10/23 06:43:02;;;;;;;70.28;29.92;;;;;;;-144.73;100.00;54654.00;4842550;29;20437;-75
2023/10/23 06:45:28;;;;;;;114.32;43.50;;;;;;;-144.73;100.00;54641.69;4840513;29;20120;-74
2023/10/23 06:47:54;;;;;;;83.35;31.08;;;;;;;-144.73;100.00;54621.16;4856899;29;20085;-75
2023/10/23 06:50:20;;;;;;;68.97;27.48;;;;;;;-144.73;100.00;54641.69;4840752;29;20026;-75
2023/10/23 06:52:46;;;;;;;101.85;34.17;;;;;;;-144.73;100.00;54658.13;4860943;29;20147;-75
2023/10/23 06:55:12;;;;;;;106.43;32.85;;;;;;;-144.73;100.00;54674.53;4851252;29;20116;-76
2023/10/23 06:57:37;;;;;;;144.90;39.42;;;;;;;-144.73;100.00;54654.00;4854653;29;20111;-76
2023/10/23 07:00:03;;;;;;;148.35;38.72;;;;;;;-144.73;100.00;54662.22;4854843;29;20046;-75
2023/10/23 07:02:28;;;;;;;230.38;44.72;;;;;;;-144.73;100.00;54658.13;4863142;29;20049;-75
2023/10/23 07:04:53;;;;;;;153.30;32.65;;;;;;;-144.73;100.00;54690.97;4837190;29;20105;-76
2023/10/23 07:07:19;;;;;;;237.27;33.28;;;;;;;-144.73;100.00;54612.97;4837297;29;20025;-74
2023/10/23 07:09:45;;;;;;;239.15;41.80;;;;;;;-144.73;100.00;54654.00;4836464;29;20050;-74
2023/10/23 07:12:12;;;;;;;253.63;44.25;;;;;;;-144.73;100.00;54637.59;4838306;29;20041;-75
2023/10/23 07:14:37;;;;;;;282.83;49.15;;;;;;;-144.73;100.00;54623.22;4853779;29;20041;-75
2023/10/23 07:17:03;;;;;;;271.02;44.03;;;;;;;-144.73;100.00;54658.13;4837706;29;20052;-75
2023/10/23 07:19:28;;;;;;;458.02;50.90;;;;;;;-144.73;100.00;54670.44;4837368;29;20535;-74
2023/10/23 07:21:53;;;;;;;244.18;41.80;;;;;;;-144.73;100.00;54645.78;4837784;29;20038;-76
2023/10/23 07:24:19;;;;;;;115.03;32.45;;;;;;;-144.73;100.00;54654.00;4844286;29;20422;-75
2023/10/23 07:26:44;;;;;;;245.20;39.47;;;;;;;-144.73;100.00;54670.44;4837975;29;20042;-76
2023/10/23 07:29:09;;;;;;;248.68;41.75;;;;;;;-144.73;100.00;54604.75;4836753;29;20124;-75
2023/10/23 07:31:36;;;;;;;244.82;42.90;;;;;;;-144.73;100.00;54649.91;4834067;29;20029;-75
2023/10/23 07:34:03;;;;;;;176.77;35.50;;;;;;;-144.73;100.00;54637.59;4844030;29;20128;-75
2023/10/23 07:36:29;;;;;;;222.15;38.75;;;;;;;-144.73;100.00;54625.28;4850701;29;20085;-75
2023/10/23 07:38:54;;;;;;;293.27;44.53;;;;;;;-144.73;100.00;54621.16;4861871;29;20041;-75
2023/10/23 07:41:19;;;;;;;115.57;31.13;;;;;;;-144.73;100.00;54645.78;4859322;29;20029;-75
2023/10/23 07:43:45;;;;;;;117.93;34.58;;;;;;;-144.73;100.00;54635.53;4840876;29;20073;-76
2023/10/23 07:46:10;;;;;;;181.77;35.25;;;;;;;-144.73;100.00;54684.78;4840156;29;20025;-75
2023/10/23 07:48:36;;;;;;;285.70;46.78;;;;;;;-144.73;100.00;54690.97;4839266;29;20021;-75
2023/10/23 07:51:03;;;;;;;331.85;39.03;;;;;;;-144.73;100.00;54633.47;4855368;29;20388;-75
2023/10/23 07:53:29;;;;;;;348.58;47.20;;;;;;;-144.73;100.00;54645.78;4852164;29;20472;-75
2023/10/23 07:55:55;;;;;;;194.10;37.15;;;;;;;-144.73;100.00;54649.91;4837176;29;20021;-75
2023/10/23 07:58:20;;;;;;;229.25;42.08;;;;;;;-144.73;100.00;54631.44;4833822;29;20517;-76
2023/10/23 08:00:45;;;;;;;157.73;35.78;;;;;;;-144.73;100.00;54633.47;4854552;29;20048;-76
2023/10/23 08:03:11;;;;;;;124.05;36.35;;;;;;;-144.73;100.00;54637.59;4837286;29;20133;-75
2023/10/23 08:05:37;;;;;;;200.95;39.22;;;;;;;-144.73;100.00;54612.97;4851135;29;20034;-75
2023/10/23 08:08:04;;;;;;;159.02;33.53;;;;;;;-144.73;100.00;54621.16;4847340;29;20116;-75
2023/10/23 08:10:29;;;;;;;188.95;40.30;;;;;;;-144.73;100.00;54621.16;4835308;29;20117;-77
2023/10/23 08:12:55;;;;;;;207.32;45.80;;;;;;;-144.73;100.00;54633.47;4853248;29;20116;-75
2023/10/23 08:15:20;;;;;;;161.30;38.83;;;;;;;-144.73;100.00;54633.47;4844697;29;20057;-77
2023/10/23 08:17:45;;;;;;;123.78;35.85;;;;;;;-144.73;100.00;54654.00;4858552;29;20025;-76
2023/10/23 08:20:11;;;;;;;117.28;34.33;;;;;;;-144.73;100.00;54658.13;4850513;29;20126;-76
2023/10/23 08:22:36;;;;;;;132.82;37.53;;;;;;;-144.73;100.00;54695.06;4841476;29;20026;-75
2023/10/23 08:25:02;;;;;;;126.95;38.08;;;;;;;-144.73;100.00;54600.63;4840690;29;20033;-75
2023/10/23 08:27:27;;;;;;;109.60;33.78;;;;;;;-144.73;100.00;54633.47;4855454;29;20017;-72
2023/10/23 08:29:52;;;;;;;137.15;37.05;;;;;;;-144.73;100.00;54621.16;4835569;29;20112;-72
2023/10/23 08:32:18;;;;;;;299.38;51.95;;;;;;;-144.73;100.00;54682.75;4836311;29;20041;-72
2023/10/23 08:34:43;;;;;;;154.55;40.28;;;;;;;-144.73;100.00;54662.22;4842402;29;20515;-72
2023/10/23 08:37:08;;;;;;;137.60;38.90;;;;;;;-144.73;100.00;54633.47;4856944;29;20025;-72
2023/10/23 08:39:34;;;;;;;134.90;35.95;;;;;;;-144.73;100.00;54617.06;4853613;29;20041;-72
2023/10/23 08:42:00;;;;;;;111.38;34.78;;;;;;;-144.73;100.00;54703.28;4857439;29;20033;-72
2023/10/23 08:44:26;;;;;;;122.75;39.83;;;;;;;-144.73;100.00;54641.69;4838449;29;20037;-72
2023/10/23 08:46:52;;;;;;;109.38;37.92;;;;;;;-144.73;100.00;54670.44;4853310;29;20120;-72
2023/10/23 08:49:17;;;;;;;95.15;36.17;;;;;;;-144.73;100.00;54641.69;4839784;29;20029;-72
2023/10/23 08:51:47;;;;;;;99.85;34.20;;;;;;;-144.73;100.00;54658.13;4837506;29;20029;-72
2023/10/23 08:54:17;;;;;;;100.82;37.63;;;;;;;-144.73;100.00;54662.22;4859701;29;20041;-73
2023/10/23 08:56:47;;;;;;;160.32;39.75;;;;;;;-144.73;100.00;54649.91;4858558;29;20091;-72
2023/10/23 08:59:15;;;;;;;131.80;40.00;;;;;;;-144.73;100.00;54658.13;4848916;29;20038;-72
2023/10/23 09:01:41;;;;;;;104.43;35.58;;;;;;;-144.73;100.00;54625.28;4863594;29;20052;-73
2023/10/23 09:04:07;;;;;;;117.60;40.95;;;;;;;-144.73;100.00;54629.38;4844876;29;20049;-73
2023/10/23 09:06:33;;;;;;;111.72;43.03;;;;;;;-144.73;100.00;54660.16;4851256;29;20041;-72
2023/10/23 09:08:59;;;;;;;92.93;38.53;;;;;;;-144.73;100.00;54617.06;4846832;29;20041;-73
2023/10/23 09:11:37;;;;;;;100.30;40.20;;;;;;;-144.73;100.00;54621.16;4851969;29;20039;-73
2023/10/23 09:14:02;;;;;;;118.55;43.92;;;;;;;-144.73;100.00;54682.75;4837183;29;20042;-73
2023/10/23 09:16:28;;;;;;;123.65;44.70;;;;;;;-144.73;100.00;54670.44;4838905;29;20029;-73
2023/10/23 09:18:55;;;;;;;107.05;42.33;;;;;;;-144.73;100.00;54612.97;4838637;29;20038;-74
2023/10/23 09:21:21;;;;;;;120.72;44.00;;;;;;;-144.73;100.00;54645.78;4839294;29;20474;-73
2023/10/23 09:23:54;;;;;;;152.25;46.97;;;;;;;-144.73;100.00;54621.16;4854823;29;20084;-73
2023/10/23 09:26:21;;;;;;;126.72;46.28;;;;;;;-144.73;100.00;54670.44;4853185;29;20037;-73
2023/10/23 09:28:47;;;;;;;120.15;46.17;;;;;;;-144.73;100.00;54643.75;4853206;29;20045;-72
2023/10/23 09:31:13;;;;;;;86.85;40.67;;;;;;;-144.73;100.00;54658.13;4838648;29;20025;-72
2023/10/23 09:33:38;;;;;;;89.35;39.97;;;;;;;-144.73;100.00;54654.00;4854999;29;20037;-72
2023/10/23 09:36:05;;;;;;;103.57;43.67;;;;;;;-144.73;100.00;54637.59;4855426;29;20065;-72
2023/10/23 09:38:32;;;;;;;93.25;43.03;;;;;;;-144.73;100.00;54637.59;4839140;29;20025;-73
2023/10/23 09:40:57;;;;;;;80.90;39.00;;;;;;;-144.73;100.00;54612.97;4838862;29;20512;-73
2023/10/23 09:43:23;;;;;;;79.45;41.28;;;;;;;-144.73;100.00;54633.47;4840999;29;20036;-72
2023/10/23 09:45:48;;;;;;;72.75;38.00;;;;;;;-144.73;100.00;54645.78;4844622;29;20049;-73
2023/10/23 09:48:15;;;;;;;64.05;33.85;;;;;;;-144.73;100.00;54656.06;4839146;29;20040;-73
2023/10/23 09:50:42;;;;;;;61.45;34.75;;;;;;;-144.73;100.00;54672.47;4837409;29;20033;-73
2023/10/23 09:53:10;;;;;;;64.28;31.35;;;;;;;-144.73;100.00;54635.53;4849140;29;20035;-72
2023/10/23 09:55:39;;;;;;;52.28;31.27;;;;;;;-144.73;100.00;54649.91;4842599;29;20053;-73
2023/10/23 09:58:13;;;;;;;50.17;31.67;;;;;;;-144.73;100.00;54678.63;4852860;29;20026;-73
2023/10/23 10:00:39;;;;;;;52.40;30.13;;;;;;;-144.73;100.00;54674.53;4844809;29;20034;-73
2023/10/23 10:03:11;;;;;;;53.25;30.85;;;;;;;-144.73;100.00;54629.38;4858909;29;20029;-73
2023/10/23 10:05:44;;;;;;;53.30;29.70;;;;;;;-144.73;100.00;54629.38;4858193;29;20041;-73
2023/10/23 10:08:18;;;;;;;48.58;25.83;;;;;;;-144.73;100.00;54662.22;4864967;29;20029;-73
2023/10/23 10:10:43;;;;;;;50.55;25.38;;;;;;;-144.73;100.00;54658.13;4846545;29;20041;-73
2023/10/23 10:13:13;;;;;;;43.80;26.00;;;;;;;-144.73;100.00;54682.75;4855363;29;20028;-73
2023/10/23 10:15:38;;;;;;;42.03;23.17;;;;;;;-144.73;100.00;54649.91;4850451;29;20082;-73
2023/10/23 10:18:04;;;;;;;33.72;21.40;;;;;;;-144.73;100.00;54629.38;4852606;29;20037;-74
2023/10/23 10:20:30;;;;;;;32.08;18.50;;;;;;;-144.73;100.00;54627.31;4849819;29;20145;-73
2023/10/23 10:23:06;;;;;;;31.38;18.40;;;;;;;-144.73;100.00;54639.63;4837104;29;20037;-73
2023/10/23 10:25:33;;;;;;;34.90;17.05;;;;;;;-144.73;100.00;54670.44;4853195;29;20049;-73
2023/10/23 10:28:03;;;;;;;27.63;17.15;;;;;;;-144.73;100.00;54645.78;4840550;29;20028;-73
2023/10/23 10:30:49;;;;;;;25.38;13.27;;;;;;;-144.73;100.00;54588.31;4852761;29;20034;-72
2023/10/23 10:33:24;;;;;;;25.00;11.70;;;;;;;-144.73;100.00;54627.31;4851221;29;20021;-73
2023/10/23 10:35:59;;;;;;;27.13;13.02;;;;;;;-144.73;100.00;54645.78;4836968;29;20086;-72
2023/10/23 10:38:26;;;;;;;22.05;11.45;;;;;;;-144.73;100.00;54637.59;4836694;29;20485;-72
2023/10/23 10:40:59;;;;;;;17.13;10.40;;;;;;;-144.73;100.00;54649.91;4851182;29;20450;-73
2023/10/23 10:43:37;;;;;;;15.50;9.30;;;;;;;-144.73;100.00;54637.59;4859585;29;20100;-74
2023/10/23 10:46:24;;;;;;;20.75;9.00;;;;;;;-144.73;100.00;54584.22;4844254;29;20049;-73
2023/10/23 10:48:52;;;;;;;17.33;8.50;;;;;;;-144.73;100.00;54617.06;4857171;29;20041;-72
2023/10/23 10:51:22;;;;;;;22.27;8.45;;;;;;;-144.73;100.00;54658.13;4844335;29;20063;-72